Time;durP1;ratioP1;P1;durP2;ratioP2;P2;SDS_P1;SDS_P2;PMS_P1;PMS_P2;Temp;Humidity;BMP_temperature;BMP_pressure;BME280_temperature;BME280_humidity;BME280_pressure;Samples;Min_cycle;Max_cycle;Signal;HPM_P1;HPM_P2
2022/08/26 00:00:04;;;;;;;6.45;5.93;;;26.50;58.20;;;;;;5072271;28;20179;-64
2022/08/26 00:02:30;;;;;;;6.95;6.45;;;26.50;58.20;;;;;;5072999;28;20182;-64
2022/08/26 00:04:55;;;;;;;7.13;6.53;;;26.50;58.20;;;;;;5072643;28;20257;-64
2022/08/26 00:07:21;;;;;;;7.78;6.75;;;26.40;58.10;;;;;;5072417;28;20181;-63
2022/08/26 00:09:46;;;;;;;6.80;6.10;;;26.50;58.20;;;;;;5072553;28;20189;-63
2022/08/26 00:12:12;;;;;;;6.88;6.28;;;26.40;58.20;;;;;;5072682;28;20614;-64
2022/08/26 00:14:38;;;;;;;7.05;6.30;;;26.40;58.30;;;;;;5072082;28;20213;-64
2022/08/26 00:17:03;;;;;;;7.65;6.95;;;26.40;58.30;;;;;;5072587;28;20277;-64
2022/08/26 00:19:29;;;;;;;6.82;6.13;;;26.40;58.30;;;;;;5072613;28;20186;-65
2022/08/26 00:21:55;;;;;;;6.80;6.20;;;26.40;58.30;;;;;;5071971;28;20189;-64
2022/08/26 00:24:20;;;;;;;6.60;6.00;;;26.40;58.30;;;;;;5036904;28;1030379;-64
2022/08/26 00:26:46;;;;;;;6.72;6.13;;;26.40;58.40;;;;;;5073342;28;20182;-64
2022/08/26 00:29:12;;;;;;;7.07;6.38;;;26.40;58.40;;;;;;5073190;28;20639;-63
2022/08/26 00:31:37;;;;;;;7.03;6.40;;;26.40;58.30;;;;;;5073061;28;20181;-63
2022/08/26 00:34:03;;;;;;;6.53;5.93;;;26.40;58.40;;;;;;5073050;28;20221;-63
2022/08/26 00:36:28;;;;;;;6.80;5.88;;;26.40;58.40;;;;;;5072822;28;20171;-64
2022/08/26 00:38:54;;;;;;;7.82;6.03;;;26.40;58.40;;;;;;5072312;28;20181;-64
2022/08/26 00:41:19;;;;;;;6.05;5.45;;;26.40;58.40;;;;;;5073068;28;20174;-64
2022/08/26 00:43:45;;;;;;;6.57;5.97;;;26.40;58.40;;;;;;5072447;28;20174;-64
2022/08/26 00:46:18;;;;;;;6.18;5.68;;;26.40;58.50;;;;;;5072897;28;20186;-64
2022/08/26 00:48:43;;;;;;;6.25;5.65;;;26.40;58.50;;;;;;5055553;28;20174;-64
2022/08/26 00:51:27;;;;;;;7.85;5.15;;;26.40;58.50;;;;;;5054625;28;20182;-63
2022/08/26 00:53:56;;;;;;;7.38;5.93;;;26.30;58.40;;;;;;5072508;28;20244;-63
2022/08/26 00:56:27;;;;;;;5.90;5.40;;;26.40;58.50;;;;;;5072471;28;20217;-63
2022/08/26 00:58:53;;;;;;;6.05;5.50;;;26.40;58.50;;;;;;5055234;28;20182;-64
2022/08/26 01:01:19;;;;;;;5.47;5.05;;;26.30;58.40;;;;;;5055263;28;20607;-64
2022/08/26 01:03:45;;;;;;;5.43;5.03;;;26.30;58.40;;;;;;5054441;28;20689;-63
2022/08/26 01:06:11;;;;;;;5.25;4.75;;;26.30;58.40;;;;;;5072510;28;20309;-64
2022/08/26 01:08:36;;;;;;;5.95;5.38;;;26.30;58.40;;;;;;5054856;28;20223;-63
2022/08/26 01:11:02;;;;;;;5.43;4.93;;;26.30;58.40;;;;;;5072186;28;20247;-63
2022/08/26 01:13:28;;;;;;;5.55;5.00;;;26.30;58.50;;;;;;5054374;28;20343;-63
2022/08/26 01:15:59;;;;;;;5.55;5.05;;;26.30;58.40;;;;;;5072610;28;20181;-64
2022/08/26 01:18:25;;;;;;;6.40;5.63;;;26.30;58.50;;;;;;5072105;28;20174;-64
2022/08/26 01:21:48;;;;;;;5.45;4.95;;;26.30;58.50;;;;;;5072163;28;20260;-64
2022/08/26 01:24:14;;;;;;;4.75;4.22;;;26.30;58.60;;;;;;5010010;28;20259;-64
2022/08/26 01:26:40;;;;;;;5.80;4.80;;;26.30;58.50;;;;;;5059336;28;20774;-63
2022/08/26 01:29:12;;;;;;;5.50;5.00;;;26.30;58.50;;;;;;5072029;28;20178;-63
2022/08/26 01:31:40;;;;;;;4.40;3.97;;;26.30;58.50;;;;;;5054046;28;20178;-63
2022/08/26 01:34:09;;;;;;;5.28;4.65;;;26.30;58.50;;;;;;5054214;28;20222;-63
2022/08/26 01:36:38;;;;;;;5.68;4.40;;;26.30;58.60;;;;;;5054529;28;20175;-64
2022/08/26 01:39:04;;;;;;;5.32;4.35;;;26.30;58.60;;;;;;5053803;28;20205;-64
2022/08/26 01:41:30;;;;;;;4.75;4.30;;;26.30;58.50;;;;;;5054161;28;20269;-64
2022/08/26 01:43:56;;;;;;;6.20;4.57;;;26.30;58.60;;;;;;5054149;28;20774;-64
2022/08/26 01:46:22;;;;;;;5.07;4.57;;;26.30;58.60;;;;;;5071790;28;20183;-64
2022/08/26 01:48:47;;;;;;;4.65;4.25;;;26.30;58.60;;;;;;5054150;28;20319;-63
2022/08/26 01:51:13;;;;;;;5.32;4.88;;;26.30;58.60;;;;;;5053492;28;20644;-63
2022/08/26 01:53:39;;;;;;;4.45;4.03;;;26.30;58.60;;;;;;5053593;28;20206;-63
2022/08/26 01:56:05;;;;;;;5.30;4.70;;;26.30;58.70;;;;;;5053976;28;20182;-64
2022/08/26 01:58:32;;;;;;;4.50;3.83;;;26.30;58.70;;;;;;5054009;28;20179;-64
2022/08/26 02:00:57;;;;;;;4.40;4.00;;;26.30;58.60;;;;;;5071568;28;20193;-64
2022/08/26 02:03:23;;;;;;;5.38;3.80;;;26.30;58.60;;;;;;5071877;28;20637;-64
2022/08/26 02:05:56;;;;;;;4.50;3.97;;;26.30;58.70;;;;;;5072051;28;20182;-64
2022/08/26 02:08:28;;;;;;;4.82;4.15;;;26.20;58.50;;;;;;5071484;28;20205;-63
2022/08/26 02:10:54;;;;;;;3.88;3.50;;;26.20;58.60;;;;;;5053689;28;20175;-63
2022/08/26 02:13:19;;;;;;;5.03;4.15;;;26.20;58.70;;;;;;5071594;28;20216;-63
2022/08/26 02:15:45;;;;;;;3.40;3.13;;;26.30;58.60;;;;;;5054105;28;20174;-64
2022/08/26 02:18:10;;;;;;;6.47;3.97;;;26.30;58.60;;;;;;5053786;28;20683;-64
2022/08/26 02:20:36;;;;;;;4.28;3.67;;;26.20;58.60;;;;;;5053591;28;20750;-64
2022/08/26 02:23:01;;;;;;;4.88;3.72;;;26.20;58.60;;;;;;5071338;28;20695;-65
2022/08/26 02:25:48;;;;;;;4.35;3.95;;;26.20;58.60;;;;;;5071755;28;20174;-64
2022/08/26 02:28:14;;;;;;;3.83;3.53;;;26.20;58.60;;;;;;5053491;28;20206;-64
2022/08/26 02:30:40;;;;;;;4.38;3.80;;;26.20;58.70;;;;;;5053783;28;20221;-63
2022/08/26 02:33:06;;;;;;;3.83;3.47;;;26.20;58.60;;;;;;5071493;28;20171;-63
2022/08/26 02:35:32;;;;;;;3.45;3.10;;;26.20;59.30;;;;;;5071236;28;20231;-63
2022/08/26 02:37:58;;;;;;;4.20;3.63;;;26.20;58.60;;;;;;5071358;28;20224;-63
2022/08/26 02:40:29;;;;;;;3.70;3.40;;;26.20;58.70;;;;;;5071510;28;20183;-64
2022/08/26 02:42:55;;;;;;;4.38;3.50;;;26.20;58.60;;;;;;5071179;28;20274;-64
2022/08/26 02:45:21;;;;;;;5.43;3.17;;;26.20;58.70;;;;;;5071486;28;20254;-64
2022/08/26 02:47:47;;;;;;;4.00;3.28;;;26.20;58.70;;;;;;5071523;28;20171;-63
2022/08/26 02:50:12;;;;;;;3.53;3.15;;;26.20;58.60;;;;;;5071234;28;20236;-63
2022/08/26 02:52:38;;;;;;;4.63;3.50;;;26.20;58.60;;;;;;5071260;28;20637;-63
2022/08/26 02:55:04;;;;;;;3.78;3.30;;;26.20;58.60;;;;;;5071568;28;20575;-64
2022/08/26 02:57:30;;;;;;;5.25;3.05;;;26.20;58.60;;;;;;5070943;28;20182;-64
2022/08/26 02:59:55;;;;;;;4.30;3.33;;;26.10;58.50;;;;;;5071347;28;20220;-64
2022/08/26 03:02:21;;;;;;;3.58;2.90;;;26.20;58.60;;;;;;5073508;28;20175;-64
2022/08/26 03:04:46;;;;;;;3.60;3.05;;;26.10;58.60;;;;;;5074311;28;20259;-64
2022/08/26 03:07:12;;;;;;;3.45;3.05;;;26.10;58.60;;;;;;5074760;28;20312;-64
2022/08/26 03:09:37;;;;;;;3.47;2.72;;;26.20;58.70;;;;;;5074382;28;20261;-63
2022/08/26 03:12:03;;;;;;;3.33;2.90;;;26.20;58.60;;;;;;5074652;28;20534;-63
2022/08/26 03:14:28;;;;;;;3.65;2.88;;;26.10;59.20;;;;;;5074708;28;20560;-64
2022/08/26 03:16:54;;;;;;;3.95;2.90;;;26.20;58.60;;;;;;5074258;28;20509;-65
2022/08/26 03:19:20;;;;;;;5.10;3.70;;;26.10;58.60;;;;;;5074659;28;20183;-64
2022/08/26 03:21:46;;;;;;;3.78;3.13;;;26.00;58.50;;;;;;5074750;28;20266;-64
2022/08/26 03:24:12;;;;;;;2.72;2.53;;;26.10;58.60;;;;;;5074151;28;20659;-64
2022/08/26 03:26:37;;;;;;;3.10;2.80;;;26.10;58.60;;;;;;5074368;28;20202;-64
2022/08/26 03:31:48;;;;;;;4.35;3.13;;;26.10;58.70;;;;;;5074030;28;20255;-63
2022/08/26 03:34:14;;;;;;;3.20;2.83;;;26.10;58.70;;;;;;5074293;28;20294;-64
2022/08/26 03:36:39;;;;;;;2.90;2.60;;;26.10;58.70;;;;;;5074433;28;20186;-64
2022/08/26 03:39:06;;;;;;;4.13;2.63;;;26.10;58.70;;;;;;5073903;28;20186;-64
2022/08/26 03:41:33;;;;;;;2.75;2.53;;;26.10;58.70;;;;;;5074118;28;20171;-64
2022/08/26 03:43:58;;;;;;;3.53;2.65;;;26.10;58.70;;;;;;5074072;28;20593;-64
2022/08/26 03:46:24;;;;;;;3.75;2.42;;;26.10;58.70;;;;;;5073873;28;20254;-64
2022/08/26 03:48:49;;;;;;;2.60;2.40;;;26.10;58.70;;;;;;5073714;28;20178;-64
2022/08/26 03:51:16;;;;;;;2.33;2.10;;;26.10;58.70;;;;;;5074237;28;20166;-63
2022/08/26 03:53:42;;;;;;;3.78;2.90;;;26.10;58.70;;;;;;5073649;28;20198;-64
2022/08/26 03:56:07;;;;;;;3.05;2.53;;;26.00;58.70;;;;;;5073874;28;20197;-64
2022/08/26 03:58:33;;;;;;;2.60;2.40;;;26.10;58.70;;;;;;5074014;28;20190;-64
2022/08/26 04:00:59;;;;;;;3.75;2.50;;;26.10;58.70;;;;;;5073341;28;20179;-64
2022/08/26 04:06:09;;;;;;;3.95;2.75;;;26.10;58.70;;;;;;5073602;28;20174;-64
2022/08/26 04:08:35;;;;;;;2.65;2.30;;;26.10;58.70;;;;;;5073648;28;20174;-63
2022/08/26 04:11:01;;;;;;;2.95;2.65;;;26.10;59.30;;;;;;5073656;28;20174;-64
2022/08/26 04:13:27;;;;;;;2.60;2.33;;;26.10;58.70;;;;;;5072397;28;20206;-64
2022/08/26 04:15:52;;;;;;;2.95;2.40;;;26.10;58.70;;;;;;5073456;28;20175;-65
2022/08/26 04:18:18;;;;;;;3.10;2.28;;;26.00;58.60;;;;;;5073724;28;20178;-64
2022/08/26 04:20:43;;;;;;;3.70;2.20;;;26.00;58.70;;;;;;5072819;28;20193;-65
2022/08/26 04:23:09;;;;;;;2.58;2.00;;;26.00;58.60;;;;;;5073101;28;20226;-64
2022/08/26 04:25:34;;;;;;;2.33;2.13;;;26.00;58.60;;;;;;5073313;28;20170;-64
2022/08/26 04:28:00;;;;;;;2.13;1.80;;;26.00;58.70;;;;;;5072717;28;20574;-63
2022/08/26 04:30:26;;;;;;;2.63;2.20;;;26.00;59.30;;;;;;5073132;28;20190;-64
2022/08/26 04:32:51;;;;;;;3.25;2.15;;;26.00;58.70;;;;;;5072920;28;20182;-64
2022/08/26 04:35:17;;;;;;;1.67;1.58;;;26.00;58.70;;;;;;5072846;28;20202;-63
2022/08/26 04:37:43;;;;;;;2.50;2.08;;;26.00;58.70;;;;;;5073055;28;20170;-65
2022/08/26 04:40:08;;;;;;;3.35;2.35;;;26.00;58.70;;;;;;5072961;28;20267;-63
2022/08/26 04:42:34;;;;;;;2.78;2.03;;;26.00;58.70;;;;;;5072619;28;20592;-64
2022/08/26 04:45:00;;;;;;;2.30;2.10;;;26.00;58.70;;;;;;5072513;28;20185;-63
2022/08/26 04:47:25;;;;;;;2.00;1.80;;;26.00;58.70;;;;;;5072833;28;20177;-63
2022/08/26 04:49:54;;;;;;;3.08;2.20;;;26.00;58.70;;;;;;5072353;28;20648;-63
2022/08/26 04:52:19;;;;;;;2.67;1.80;;;26.00;58.70;;;;;;5072727;28;20185;-63
2022/08/26 04:54:45;;;;;;;4.30;2.30;;;26.00;58.70;;;;;;5072843;28;20207;-63
2022/08/26 04:57:10;;;;;;;2.47;1.90;;;26.00;58.60;;;;;;5072313;28;20213;-63
2022/08/26 04:59:36;;;;;;;2.10;1.85;;;26.00;58.60;;;;;;5072443;28;20201;-63
2022/08/26 05:02:02;;;;;;;2.78;2.00;;;26.00;58.60;;;;;;5072487;28;20266;-64
2022/08/26 05:04:28;;;;;;;1.60;1.45;;;26.00;58.70;;;;;;5071741;28;20658;-64
2022/08/26 05:06:53;;;;;;;2.33;1.98;;;26.00;58.70;;;;;;5072676;28;20175;-63
2022/08/26 05:09:19;;;;;;;2.67;1.95;;;26.00;58.70;;;;;;5072141;28;20178;-62
2022/08/26 05:11:45;;;;;;;2.90;1.95;;;26.00;58.60;;;;;;5072605;28;20213;-63
2022/08/26 05:14:10;;;;;;;2.85;1.92;;;25.90;58.60;;;;;;5072418;28;20202;-63
2022/08/26 05:16:36;;;;;;;2.65;2.00;;;26.00;58.60;;;;;;5071822;28;20227;-63
2022/08/26 05:19:02;;;;;;;3.78;1.80;;;26.00;58.60;;;;;;5072223;28;20554;-64
2022/08/26 05:21:27;;;;;;;1.90;1.52;;;26.00;58.70;;;;;;5072284;28;20173;-64
2022/08/26 05:23:53;;;;;;;2.88;1.58;;;26.00;58.70;;;;;;5071628;28;20222;-63
2022/08/26 05:26:19;;;;;;;2.47;1.90;;;26.00;58.70;;;;;;5072049;28;20190;-64
2022/08/26 05:28:45;;;;;;;4.15;2.20;;;26.00;58.70;;;;;;5072324;28;20175;-63
2022/08/26 05:31:12;;;;;;;1.70;1.60;;;25.90;58.60;;;;;;5071772;28;20171;-63
2022/08/26 05:33:38;;;;;;;3.28;1.98;;;26.00;58.60;;;;;;5071814;28;20556;-63
2022/08/26 05:36:11;;;;;;;2.30;1.65;;;26.00;58.60;;;;;;5072028;28;20185;-63
2022/08/26 05:38:36;;;;;;;1.60;1.50;;;26.00;58.60;;;;;;5071654;28;20220;-63
2022/08/26 05:41:02;;;;;;;2.35;1.85;;;26.00;58.60;;;;;;5071855;28;20174;-64
2022/08/26 05:43:27;;;;;;;3.05;1.88;;;26.00;58.60;;;;;;5071984;28;20228;-64
2022/08/26 05:45:53;;;;;;;2.47;1.50;;;26.00;58.60;;;;;;5071342;28;20228;-64
2022/08/26 05:48:19;;;;;;;2.83;1.67;;;25.90;58.60;;;;;;5072073;28;20177;-63
2022/08/26 05:50:46;;;;;;;1.67;1.50;;;26.00;58.60;;;;;;5071914;28;20166;-63
2022/08/26 05:53:12;;;;;;;2.53;1.55;;;26.00;58.70;;;;;;5071468;28;20239;-63
2022/08/26 05:55:42;;;;;;;2.13;1.40;;;26.00;58.60;;;;;;5071869;28;20206;-63
2022/08/26 05:58:08;;;;;;;1.92;1.80;;;26.00;58.60;;;;;;5071740;28;20179;-64
2022/08/26 06:00:34;;;;;;;1.75;1.60;;;26.00;58.60;;;;;;5071218;28;20178;-64
2022/08/26 06:02:59;;;;;;;1.73;1.23;;;26.00;58.70;;;;;;5071914;28;20189;-63
2022/08/26 06:05:25;;;;;;;1.83;1.55;;;26.00;58.60;;;;;;5071151;28;20178;-63
2022/08/26 06:10:36;;;;;;;1.67;1.30;;;26.00;58.50;;;;;;5071805;28;20651;-63
2022/08/26 06:13:02;;;;;;;1.95;1.50;;;26.00;58.50;;;;;;5070946;28;20235;-63
2022/08/26 06:15:27;;;;;;;2.88;1.48;;;26.00;58.50;;;;;;5071603;28;20171;-63
2022/08/26 06:17:53;;;;;;;2.92;1.42;;;26.00;58.50;;;;;;5071766;28;20170;-63
2022/08/26 06:20:18;;;;;;;1.52;1.42;;;26.00;58.50;;;;;;5071576;28;20170;-63
2022/08/26 06:25:36;;;;;;;3.20;1.67;;;26.00;58.50;;;;;;5071858;28;20243;-63
2022/08/26 06:28:02;;;;;;;2.05;1.40;;;26.00;58.40;;;;;;5071283;28;20601;-62
2022/08/26 06:30:28;;;;;;;2.22;1.60;;;26.00;58.60;;;;;;5071629;28;20696;-63
2022/08/26 06:32:54;;;;;;;3.00;1.67;;;26.10;58.70;;;;;;5071608;28;20213;-63
2022/08/26 06:35:19;;;;;;;2.53;1.70;;;26.00;58.90;;;;;;5071089;28;20560;-64
2022/08/26 06:37:45;;;;;;;3.25;1.50;;;26.10;58.80;;;;;;5074058;28;20173;-65
2022/08/26 06:40:10;;;;;;;2.20;1.45;;;26.00;58.80;;;;;;5074995;28;20186;-66
2022/08/26 06:42:36;;;;;;;3.28;1.38;;;26.10;59.20;;;;;;5075145;28;20174;-66
2022/08/26 06:45:02;;;;;;;3.75;2.10;;;26.10;59.10;;;;;;5075030;28;20181;-68
2022/08/26 06:47:28;;;;;;;2.38;1.42;;;26.10;59.00;;;;;;5075382;28;20182;-66
2022/08/26 06:49:53;;;;;;;1.92;1.40;;;26.00;59.20;;;;;;5074524;28;20650;-63
2022/08/26 06:52:19;;;;;;;5.63;1.70;;;26.00;59.10;;;;;;5075248;28;20178;-63
2022/08/26 06:54:44;;;;;;;5.88;1.95;;;26.00;58.80;;;;;;5074320;28;20545;-63
2022/08/26 06:57:10;;;;;;;3.58;1.33;;;26.00;58.70;;;;;;5075008;28;20620;-64
2022/08/26 06:59:36;;;;;;;4.68;1.55;;;26.10;58.90;;;;;;5075018;28;20187;-63
2022/08/26 07:02:01;;;;;;;5.07;1.50;;;26.00;58.70;;;;;;5074550;28;20175;-64
2022/08/26 07:04:27;;;;;;;3.80;1.63;;;26.10;58.70;;;;;;5074810;28;20170;-64
2022/08/26 07:06:53;;;;;;;4.38;1.10;;;26.10;58.70;;;;;;5074718;28;20202;-64
2022/08/26 07:09:20;;;;;;;3.03;1.13;;;26.10;58.60;;;;;;5057026;28;20251;-63
2022/08/26 07:11:46;;;;;;;2.72;1.17;;;26.10;58.60;;;;;;5074514;28;20577;-63
2022/08/26 07:14:12;;;;;;;4.03;1.40;;;26.10;58.50;;;;;;5074820;28;20771;-64
2022/08/26 07:16:38;;;;;;;5.90;1.70;;;26.20;58.50;;;;;;5074391;28;20237;-65
2022/08/26 07:19:04;;;;;;;4.80;1.50;;;26.20;58.60;;;;;;5074445;28;20550;-65
2022/08/26 07:21:29;;;;;;;4.65;1.40;;;26.20;58.50;;;;;;5074599;28;20589;-64
2022/08/26 07:23:55;;;;;;;3.20;1.33;;;26.20;58.50;;;;;;5073938;28;20569;-65
2022/08/26 07:26:25;;;;;;;5.07;1.70;;;26.20;58.40;;;;;;5074414;28;20599;-66
2022/08/26 07:28:52;;;;;;;6.30;1.45;;;26.20;58.40;;;;;;5074707;28;20179;-65
2022/08/26 07:31:19;;;;;;;5.95;1.55;;;26.20;58.30;;;;;;5074329;28;20193;-63
2022/08/26 07:33:44;;;;;;;5.82;1.42;;;26.20;58.30;;;;;;5074112;28;20206;-64
2022/08/26 07:36:10;;;;;;;4.97;1.60;;;26.30;58.40;;;;;;5074486;28;20514;-64
2022/08/26 07:38:36;;;;;;;2.60;1.55;;;26.30;58.50;;;;;;5074118;28;20175;-64
2022/08/26 07:41:02;;;;;;;5.22;1.45;;;26.30;58.50;;;;;;5074021;28;20296;-65
2022/08/26 07:43:28;;;;;;;3.78;1.42;;;26.20;58.40;;;;;;5074429;28;20220;-65
2022/08/26 07:45:53;;;;;;;4.85;2.03;;;26.30;58.40;;;;;;5073512;28;20182;-65
2022/08/26 07:48:19;;;;;;;3.97;1.52;;;26.30;58.40;;;;;;5074356;28;20175;-64
2022/08/26 07:50:44;;;;;;;4.20;1.38;;;26.30;58.30;;;;;;5073987;28;20266;-64
2022/08/26 07:53:11;;;;;;;7.72;1.75;;;26.30;58.30;;;;;;5073678;28;20253;-65
2022/08/26 07:55:36;;;;;;;3.60;1.45;;;26.40;58.30;;;;;;5074180;28;20190;-65
2022/08/26 07:58:02;;;;;;;4.00;1.42;;;26.40;58.40;;;;;;5073520;28;20167;-66
2022/08/26 08:00:31;;;;;;;3.63;1.67;;;26.40;58.40;;;;;;5073926;28;20181;-67
2022/08/26 08:03:00;;;;;;;3.67;1.20;;;26.40;58.40;;;;;;5073756;28;20223;-65
2022/08/26 08:05:26;;;;;;;5.35;1.40;;;26.40;58.40;;;;;;5073394;28;20178;-65
2022/08/26 08:07:51;;;;;;;4.63;1.30;;;26.50;58.40;;;;;;5073710;28;20182;-64
2022/08/26 08:10:22;;;;;;;3.53;1.10;;;26.40;58.40;;;;;;5073477;28;20178;-64
2022/08/26 08:12:48;;;;;;;4.72;1.60;;;26.40;58.40;;;;;;5073131;28;20269;-64
2022/08/26 08:15:14;;;;;;;5.38;1.50;;;26.50;58.50;;;;;;5073366;28;20322;-65
2022/08/26 08:17:42;;;;;;;4.32;1.58;;;26.40;58.50;;;;;;5073427;28;20189;-64
2022/08/26 08:20:08;;;;;;;5.78;1.63;;;26.50;58.50;;;;;;5072928;28;20171;-65
2022/08/26 08:22:34;;;;;;;4.68;1.52;;;26.50;58.40;;;;;;5073143;28;20226;-64
2022/08/26 08:24:59;;;;;;;6.50;1.52;;;26.50;58.30;;;;;;5073363;28;20170;-64
2022/08/26 08:27:25;;;;;;;2.70;1.10;;;26.50;58.30;;;;;;5072914;28;20581;-63
2022/08/26 08:29:55;;;;;;;3.65;1.25;;;26.50;58.30;;;;;;5073012;28;20541;-64
2022/08/26 08:32:21;;;;;;;2.60;1.30;;;26.50;58.20;;;;;;5073219;28;20205;-64
2022/08/26 08:34:47;;;;;;;4.50;1.40;;;26.50;58.20;;;;;;5072817;28;20217;-63
2022/08/26 08:37:12;;;;;;;3.65;1.58;;;26.60;58.10;;;;;;5073273;28;20220;-64
2022/08/26 08:39:38;;;;;;;4.55;1.58;;;26.60;58.10;;;;;;5072992;28;20236;-64
2022/08/26 08:42:09;;;;;;;4.10;1.55;;;26.60;58.10;;;;;;5072238;28;20224;-64
2022/08/26 08:44:36;;;;;;;5.82;1.42;;;26.60;58.20;;;;;;5073089;28;20178;-65
2022/08/26 08:47:04;;;;;;;2.20;1.30;;;26.60;58.30;;;;;;5055070;28;20258;-63
2022/08/26 08:49:31;;;;;;;2.72;1.23;;;26.60;58.30;;;;;;5054636;28;20626;-64
2022/08/26 08:52:03;;;;;;;7.65;1.50;;;26.60;58.30;;;;;;5055169;28;20242;-63
2022/08/26 08:54:30;;;;;;;3.97;1.63;;;26.60;58.30;;;;;;5072380;28;20206;-64
2022/08/26 08:57:01;;;;;;;5.40;1.45;;;26.60;58.30;;;;;;5054809;28;20254;-64
2022/08/26 08:59:30;;;;;;;3.45;1.65;;;26.50;58.30;;;;;;5055016;28;20193;-64
2022/08/26 09:02:21;;;;;;;5.28;1.45;;;26.50;58.30;;;;;;5072317;28;20178;-64
2022/08/26 09:04:55;;;;;;;2.95;1.27;;;26.50;58.30;;;;;;5072356;28;20174;-64
2022/08/26 09:07:31;;;;;;;3.17;1.50;;;26.50;58.40;;;;;;5054901;28;20189;-64
2022/08/26 09:09:58;;;;;;;2.92;1.35;;;26.50;58.40;;;;;;5071943;28;20182;-63
2022/08/26 09:12:27;;;;;;;2.63;1.15;;;26.50;59.10;;;;;;5054668;28;20533;-64
2022/08/26 09:14:56;;;;;;;3.47;1.30;;;26.50;58.50;;;;;;5072524;28;20296;-64
2022/08/26 09:17:31;;;;;;;2.47;1.20;;;26.40;58.70;;;;;;5054040;28;20548;-64
2022/08/26 09:20:12;;;;;;;2.42;1.45;;;26.50;58.90;;;;;;5072404;28;20481;-65
2022/08/26 09:22:38;;;;;;;3.88;1.52;;;26.50;59.10;;;;;;5071997;28;20218;-64
2022/08/26 09:25:06;;;;;;;3.38;1.42;;;26.50;59.00;;;;;;5072325;28;20676;-64
2022/08/26 09:27:49;;;;;;;2.30;1.40;;;26.50;59.10;;;;;;5072373;28;20550;-64
2022/08/26 09:30:23;;;;;;;4.63;1.23;;;26.40;58.90;;;;;;5072784;28;20274;-62
2022/08/26 09:33:07;;;;;;;3.38;1.13;;;26.40;58.90;;;;;;5057181;28;20252;-62
2022/08/26 09:35:35;;;;;;;3.65;1.67;;;26.50;58.60;;;;;;5072200;28;20189;-61
2022/08/26 09:38:00;;;;;;;3.88;1.40;;;26.40;58.10;;;;;;5053546;28;20178;-62
2022/08/26 09:40:26;;;;;;;4.20;1.38;;;26.30;57.70;;;;;;5071960;28;20223;-62
2022/08/26 09:43:08;;;;;;;2.75;1.30;;;26.30;57.40;;;;;;5072087;28;20174;-62
2022/08/26 09:45:34;;;;;;;4.68;1.50;;;26.30;57.30;;;;;;5071469;28;20185;-62
2022/08/26 09:48:00;;;;;;;2.10;1.50;;;26.20;57.40;;;;;;5071951;28;20301;-62
2022/08/26 09:50:34;;;;;;;2.58;1.25;;;26.10;57.50;;;;;;5054291;28;20309;-62
2022/08/26 09:53:15;;;;;;;2.63;1.23;;;26.10;57.30;;;;;;5054120;28;20181;-62
2022/08/26 09:55:46;;;;;;;5.38;1.52;;;26.10;57.30;;;;;;5072006;28;20233;-62
2022/08/26 09:58:32;;;;;;;5.22;1.20;;;26.10;57.00;;;;;;5071808;28;20213;-62
2022/08/26 10:01:00;;;;;;;3.78;1.33;;;26.10;57.00;;;;;;5071740;28;20174;-62
2022/08/26 10:03:31;;;;;;;3.78;1.25;;;26.10;57.00;;;;;;5071970;28;20175;-62
2022/08/26 10:05:58;;;;;;;2.30;1.17;;;26.00;57.00;;;;;;5053445;28;20178;-62
2022/08/26 10:08:28;;;;;;;4.85;1.63;;;26.00;57.00;;;;;;5071608;28;20689;-61
2022/08/26 10:10:55;;;;;;;4.80;1.60;;;26.00;57.00;;;;;;5054552;28;20178;-61
2022/08/26 10:13:25;;;;;;;5.50;1.45;;;26.00;57.10;;;;;;5057141;28;20209;-62
2022/08/26 10:15:58;;;;;;;3.42;1.50;;;26.00;57.00;;;;;;5075564;28;20640;-62
2022/08/26 10:18:31;;;;;;;4.72;1.48;;;26.00;56.80;;;;;;5058019;28;20214;-62
2022/08/26 10:21:05;;;;;;;4.10;1.30;;;26.10;56.80;;;;;;5074803;28;20537;-62
2022/08/26 10:23:33;;;;;;;5.18;1.55;;;26.10;56.70;;;;;;5057816;28;20237;-63
2022/08/26 10:26:04;;;;;;;4.82;1.45;;;26.10;56.80;;;;;;5057322;28;20265;-62
2022/08/26 10:28:42;;;;;;;5.70;1.55;;;26.00;56.80;;;;;;5058104;28;20541;-62
2022/08/26 10:31:33;;;;;;;5.47;1.83;;;26.00;56.90;;;;;;5057508;28;20178;-61
2022/08/26 10:33:59;;;;;;;4.63;1.40;;;26.00;57.00;;;;;;5056974;28;20561;-62
2022/08/26 10:39:15;;;;;;;8.43;1.70;;;26.00;57.10;;;;;;5060394;28;20181;-62
2022/08/26 10:41:41;;;;;;;8.73;1.60;;;26.00;57.00;;;;;;5056798;28;20179;-62
2022/08/26 10:44:07;;;;;;;9.85;1.60;;;26.00;57.00;;;;;;5057615;28;20186;-62
2022/08/26 10:46:44;;;;;;;5.00;1.30;;;26.10;57.00;;;;;;5058933;28;20261;-62
2022/08/26 10:49:14;;;;;;;5.80;1.70;;;26.10;56.90;;;;;;5057151;28;20759;-61
2022/08/26 10:51:51;;;;;;;6.75;1.98;;;26.10;57.00;;;;;;5075230;28;20227;-62
2022/08/26 10:54:28;;;;;;;7.13;1.80;;;26.00;57.00;;;;;;5056727;28;20263;-62
2022/08/26 10:57:07;;;;;;;4.03;1.58;;;26.00;56.90;;;;;;5057105;28;20224;-62
2022/08/26 10:59:53;;;;;;;4.78;1.45;;;26.00;56.90;;;;;;5057957;28;20514;-63
2022/08/26 11:02:32;;;;;;;6.47;1.60;;;26.00;56.70;;;;;;5074320;28;20184;-62
2022/08/26 11:04:59;;;;;;;5.47;1.88;;;26.00;56.60;;;;;;5057280;28;20174;-62
2022/08/26 11:07:35;;;;;;;5.95;1.67;;;26.00;56.50;;;;;;5075017;28;20640;-62
2022/08/26 11:10:21;;;;;;;3.15;1.23;;;26.00;56.50;;;;;;5074046;28;20223;-62
2022/08/26 11:13:13;;;;;;;1.63;0.80;;;26.10;56.40;;;;;;5074824;28;20205;-62
2022/08/26 11:15:38;;;;;;;4.10;1.30;;;26.00;56.40;;;;;;5071476;28;20531;-62
2022/08/26 11:18:06;;;;;;;2.00;1.30;;;26.10;56.20;;;;;;5074167;28;20696;-63
2022/08/26 11:20:44;;;;;;;3.50;1.25;;;26.20;56.20;;;;;;5074793;28;20178;-62
2022/08/26 11:23:21;;;;;;;3.42;1.25;;;26.20;56.10;;;;;;5073511;28;20290;-62
2022/08/26 11:26:12;;;;;;;4.18;1.10;;;26.10;56.00;;;;;;5074551;28;20260;-62
2022/08/26 11:28:39;;;;;;;4.30;1.13;;;26.00;56.10;;;;;;5074301;28;20599;-61
2022/08/26 11:31:08;;;;;;;3.35;1.50;;;26.00;56.10;;;;;;5055393;28;20189;-61
2022/08/26 11:33:47;;;;;;;3.67;1.15;;;26.00;56.10;;;;;;5056366;28;20252;-61
2022/08/26 11:36:38;;;;;;;4.10;1.00;;;26.00;56.30;;;;;;5074138;28;20231;-61
2022/08/26 11:39:29;;;;;;;3.72;0.90;;;26.00;56.20;;;;;;5074182;28;20200;-62
2022/08/26 11:42:15;;;;;;;3.08;1.10;;;25.90;56.10;;;;;;5074183;28;20166;-62
2022/08/26 11:44:42;;;;;;;3.25;1.10;;;25.80;56.20;;;;;;5055902;28;20243;-62
2022/08/26 11:47:09;;;;;;;2.72;1.13;;;25.80;56.10;;;;;;5056449;28;20586;-61
2022/08/26 11:49:36;;;;;;;4.40;1.20;;;25.80;56.20;;;;;;5074243;28;20282;-60
2022/08/26 11:52:19;;;;;;;3.03;1.08;;;25.70;56.20;;;;;;5073320;28;20178;-60
2022/08/26 11:55:01;;;;;;;2.35;1.08;;;25.70;56.50;;;;;;5074125;28;20214;-60
2022/08/26 11:57:27;;;;;;;3.47;1.20;;;25.70;56.90;;;;;;5073761;28;20264;-60
2022/08/26 11:59:52;;;;;;;1.45;1.00;;;25.70;57.30;;;;;;5055793;28;20544;-60
2022/08/26 12:02:18;;;;;;;5.30;1.20;;;25.80;58.20;;;;;;5056212;28;20261;-61
2022/08/26 12:04:47;;;;;;;2.65;1.10;;;25.70;58.00;;;;;;5055104;28;20184;-61
2022/08/26 12:07:13;;;;;;;2.45;1.02;;;25.70;58.10;;;;;;5055901;28;20616;-63
2022/08/26 12:09:54;;;;;;;4.13;1.00;;;25.70;58.10;;;;;;5073844;28;20224;-61
2022/08/26 12:12:29;;;;;;;2.47;1.08;;;25.70;58.00;;;;;;5073411;28;20197;-61
2022/08/26 12:15:07;;;;;;;2.70;0.93;;;25.70;58.00;;;;;;5073547;28;20202;-62
2022/08/26 12:17:32;;;;;;;3.42;0.80;;;25.80;58.10;;;;;;5073503;28;20600;-62
2022/08/26 12:19:58;;;;;;;4.47;1.20;;;25.80;58.20;;;;;;5073049;28;20182;-62
2022/08/26 12:22:27;;;;;;;2.35;1.10;;;25.80;58.10;;;;;;5073174;28;20747;-62
2022/08/26 12:24:57;;;;;;;2.28;1.00;;;25.80;58.10;;;;;;5055497;28;20181;-62
2022/08/26 12:27:25;;;;;;;3.83;1.27;;;25.80;58.20;;;;;;5054701;28;20663;-61
2022/08/26 12:30:11;;;;;;;2.47;1.20;;;25.80;58.30;;;;;;5055110;28;20682;-61
2022/08/26 12:32:45;;;;;;;3.10;1.00;;;25.80;58.70;;;;;;5074448;28;20182;-60
2022/08/26 12:35:15;;;;;;;3.45;1.00;;;25.70;58.70;;;;;;5072590;28;20249;-61
2022/08/26 12:37:43;;;;;;;4.63;1.40;;;25.80;59.00;;;;;;5055116;28;20178;-61
2022/08/26 12:40:35;;;;;;;5.00;1.35;;;25.80;59.20;;;;;;5054800;28;20640;-62
2022/08/26 12:43:03;;;;;;;5.45;1.63;;;25.80;59.20;;;;;;5073030;28;20174;-62
2022/08/26 12:45:30;;;;;;;1.92;1.20;;;25.80;59.10;;;;;;5073135;28;20182;-62
2022/08/26 12:47:58;;;;;;;3.45;1.15;;;25.90;59.20;;;;;;5072091;28;20179;-62
2022/08/26 12:50:34;;;;;;;3.45;1.08;;;25.80;59.10;;;;;;5055004;28;20175;-62
2022/08/26 12:53:02;;;;;;;3.17;1.10;;;25.80;59.10;;;;;;5056254;28;20210;-61
2022/08/26 12:55:30;;;;;;;2.38;0.88;;;25.80;59.00;;;;;;5054399;28;20296;-61
2022/08/26 12:58:32;;;;;;;2.10;0.90;;;25.90;59.00;;;;;;5072559;28;20174;-62
2022/08/26 13:01:20;;;;;;;2.15;0.88;;;25.90;58.80;;;;;;5039697;28;20248;-62
2022/08/26 13:03:46;;;;;;;2.45;1.13;;;25.90;58.60;;;;;;5072453;28;20174;-62
2022/08/26 13:06:21;;;;;;;2.30;1.05;;;25.80;58.50;;;;;;5072766;28;20651;-62
2022/08/26 13:08:53;;;;;;;2.50;1.08;;;25.80;58.40;;;;;;5071633;28;20647;-62